PWSweather.com
Personal Weather Stations
Station Observations
KCOGRAND2
Redlands, Southcamp Road & Dakota Circle, Grand Junction, CO 81507

Redlands, Southcamp Road & Dakota CircleGrand Junction, CO 81507

Lat: 39.055, Lon: -108.637

Elevation: 4870

Station Type: RadioShack WX200

High Low Average
Temperature 67.3°F19.6°C 47.3°F8.5°C 61.7°F16.5°C
Dew Point -5537.2°C -5537.2°C -5537.2°C
Winds 18.0 mph 29.0 kmh Calm Calm 11.0 mph NW17.7 kmh NW
Wind Gusts 31.8 mph51.2 kmh 3.1 mph5.0 kmh 17.0 mph27.4 kmh
Humidity - - -
Pressure 25.01 in846.9 mb 24.98 in845.9 mb -
Precipitation 0.00 in0.0 mm - -
Hour Temp Dew Point Humidity Winds Wind Gusts Pressure Precip Precip Rate Daily Precip Total
12:02 AM 48.9°F9.4°C -5537.2°C - 2.0 mph S3.2 kmh S 5.4 mph8.7 kmh 24.98 in845.9 mb 0.00 in0.0 mm 0.00 in/hr0.0 mm/hr 0.00 in0.0 mm
12:07 AM 49.1°F9.5°C -5537.2°C - 2.0 mph SW3.2 kmh SW 4.9 mph7.9 kmh 24.98 in845.9 mb 0.00 in0.0 mm 0.00 in/hr0.0 mm/hr 0.00 in0.0 mm
12:12 AM 48.9°F9.4°C -5537.2°C - 2.0 mph SW3.2 kmh SW 4.0 mph6.4 kmh 24.98 in845.9 mb 0.00 in0.0 mm 0.00 in/hr0.0 mm/hr 0.00 in0.0 mm
12:17 AM 48.9°F9.4°C -5537.2°C - 1.0 mph SW1.6 kmh SW 4.0 mph6.4 kmh 24.98 in845.9 mb 0.00 in0.0 mm 0.00 in/hr0.0 mm/hr 0.00 in0.0 mm
12:22 AM 48.7°F9.3°C -5537.2°C - Calm Calm 4.0 mph6.4 kmh 24.98 in845.9 mb 0.00 in0.0 mm 0.00 in/hr0.0 mm/hr 0.00 in0.0 mm
12:27 AM 48.7°F9.3°C -5537.2°C - Calm Calm 3.1 mph5.0 kmh 24.98 in845.9 mb 0.00 in0.0 mm 0.00 in/hr0.0 mm/hr 0.00 in0.0 mm
12:32 AM 48.9°F9.4°C -5537.2°C - 2.0 mph WSW3.2 kmh WSW 6.3 mph10.1 kmh 24.98 in845.9 mb 0.00 in0.0 mm 0.00 in/hr0.0 mm/hr 0.00 in0.0 mm
12:37 AM 50.0°F10.0°C -5537.2°C - 4.0 mph WSW6.4 kmh WSW 9.2 mph14.8 kmh 24.98 in845.9 mb 0.00 in0.0 mm 0.00 in/hr0.0 mm/hr 0.00 in0.0 mm
12:42 AM 50.4°F10.2°C -5537.2°C - 6.0 mph WSW9.7 kmh WSW 9.6 mph15.4 kmh 24.98 in845.9 mb 0.00 in0.0 mm 0.00 in/hr0.0 mm/hr 0.00 in0.0 mm
12:47 AM 50.2°F10.1°C -5537.2°C - 6.0 mph WSW9.7 kmh WSW 11.2 mph18.0 kmh 24.98 in845.9 mb 0.00 in0.0 mm 0.00 in/hr0.0 mm/hr 0.00 in0.0 mm
12:52 AM 50.0°F10.0°C -5537.2°C - 7.0 mph WSW11.3 kmh WSW 11.0 mph17.7 kmh 24.98 in845.9 mb 0.00 in0.0 mm 0.00 in/hr0.0 mm/hr 0.00 in0.0 mm
12:57 AM 49.6°F9.8°C -5537.2°C - 7.0 mph WSW11.3 kmh WSW 10.1 mph16.3 kmh 24.98 in845.9 mb 0.00 in0.0 mm 0.00 in/hr0.0 mm/hr 0.00 in0.0 mm
01:02 AM 48.7°F9.3°C -5537.2°C - 6.0 mph W9.7 kmh W 9.6 mph15.4 kmh 24.98 in845.9 mb 0.00 in0.0 mm 0.00 in/hr0.0 mm/hr 0.00 in0.0 mm
01:07 AM 48.7°F9.3°C -5537.2°C - 6.0 mph W9.7 kmh W 9.6 mph15.4 kmh 24.98 in845.9 mb 0.00 in0.0 mm 0.00 in/hr0.0 mm/hr 0.00 in0.0 mm
01:12 AM 48.0°F8.9°C -5537.2°C - 4.0 mph W6.4 kmh W 4.9 mph7.9 kmh 24.98 in845.9 mb 0.00 in0.0 mm 0.00 in/hr0.0 mm/hr 0.00 in0.0 mm
01:17 AM 47.3°F8.5°C -5537.2°C - 3.0 mph WNW4.8 kmh WNW 4.5 mph7.2 kmh 24.98 in845.9 mb 0.00 in0.0 mm 0.00 in/hr0.0 mm/hr 0.00 in0.0 mm
12:35 PM 63.9°F17.7°C -5537.2°C - 13.0 mph NW20.9 kmh NW 17.2 mph27.7 kmh 25.01 in846.9 mb 0.00 in0.0 mm 0.00 in/hr0.0 mm/hr 0.00 in0.0 mm
12:40 PM 64.6°F18.1°C -5537.2°C - 12.0 mph NW19.3 kmh NW 19.0 mph30.6 kmh 25.01 in846.9 mb 0.00 in0.0 mm 0.00 in/hr0.0 mm/hr 0.00 in0.0 mm
12:50 PM 66.2°F19.0°C -5537.2°C - 15.0 mph NW24.1 kmh NW 20.1 mph32.3 kmh 25.01 in846.9 mb 0.00 in0.0 mm 0.00 in/hr0.0 mm/hr 0.00 in0.0 mm
12:55 PM 65.5°F18.6°C -5537.2°C - 14.0 mph NNW22.5 kmh NNW 21.9 mph35.2 kmh 25.01 in846.9 mb 0.00 in0.0 mm 0.00 in/hr0.0 mm/hr 0.00 in0.0 mm
01:00 PM 66.4°F19.1°C -5537.2°C - 15.0 mph NNW24.1 kmh NNW 21.0 mph33.8 kmh 25.01 in846.9 mb 0.00 in0.0 mm 0.00 in/hr0.0 mm/hr 0.00 in0.0 mm
01:05 PM 65.7°F18.7°C -5537.2°C - 14.0 mph NW22.5 kmh NW 21.9 mph35.2 kmh 25.01 in846.9 mb 0.00 in0.0 mm 0.00 in/hr0.0 mm/hr 0.00 in0.0 mm
01:10 PM 65.7°F18.7°C -5537.2°C - 14.0 mph NW22.5 kmh NW 24.8 mph39.9 kmh 25.01 in846.9 mb 0.00 in0.0 mm 0.00 in/hr0.0 mm/hr 0.00 in0.0 mm
01:15 PM 66.2°F19.0°C -5537.2°C - 14.0 mph NW22.5 kmh NW 20.6 mph33.2 kmh 25.01 in846.9 mb 0.00 in0.0 mm 0.00 in/hr0.0 mm/hr 0.00 in0.0 mm
01:20 PM 66.4°F19.1°C -5537.2°C - 14.0 mph NW22.5 kmh NW 22.4 mph36.0 kmh 25.01 in846.9 mb 0.00 in0.0 mm 0.00 in/hr0.0 mm/hr 0.00 in0.0 mm
01:25 PM 65.7°F18.7°C -5537.2°C - 15.0 mph NW24.1 kmh NW 21.5 mph34.6 kmh 25.01 in846.9 mb 0.00 in0.0 mm 0.00 in/hr0.0 mm/hr 0.00 in0.0 mm
01:30 PM 66.4°F19.1°C -5537.2°C - 15.0 mph NW24.1 kmh NW 21.9 mph35.2 kmh 25.01 in846.9 mb 0.00 in0.0 mm 0.00 in/hr0.0 mm/hr 0.00 in0.0 mm
01:35 PM 65.1°F18.4°C -5537.2°C - 15.0 mph WNW24.1 kmh WNW 23.3 mph37.5 kmh 25.01 in846.9 mb 0.00 in0.0 mm 0.00 in/hr0.0 mm/hr 0.00 in0.0 mm
01:40 PM 65.3°F18.5°C -5537.2°C - 15.0 mph NW24.1 kmh NW 24.8 mph39.9 kmh 25.01 in846.9 mb 0.00 in0.0 mm 0.00 in/hr0.0 mm/hr 0.00 in0.0 mm
01:45 PM 64.8°F18.2°C -5537.2°C - 15.0 mph NW24.1 kmh NW 22.4 mph36.0 kmh 25.01 in846.9 mb 0.00 in0.0 mm 0.00 in/hr0.0 mm/hr 0.00 in0.0 mm
01:50 PM 64.8°F18.2°C -5537.2°C - 15.0 mph NW24.1 kmh NW 21.0 mph33.8 kmh 25.01 in846.9 mb 0.00 in0.0 mm 0.00 in/hr0.0 mm/hr 0.00 in0.0 mm
01:55 PM 66.0°F18.9°C -5537.2°C - 15.0 mph NW24.1 kmh NW 22.4 mph36.0 kmh 25.01 in846.9 mb 0.00 in0.0 mm 0.00 in/hr0.0 mm/hr 0.00 in0.0 mm
02:00 PM 64.9°F18.3°C -5537.2°C - 16.0 mph NW25.7 kmh NW 23.7 mph38.1 kmh 24.98 in845.9 mb 0.00 in0.0 mm 0.00 in/hr0.0 mm/hr 0.00 in0.0 mm
02:05 PM 64.6°F18.1°C -5537.2°C - 16.0 mph NW25.7 kmh NW 23.3 mph37.5 kmh 24.98 in845.9 mb 0.00 in0.0 mm 0.00 in/hr0.0 mm/hr 0.00 in0.0 mm
02:10 PM 64.2°F17.9°C -5537.2°C - 15.0 mph NW24.1 kmh NW 21.0 mph33.8 kmh 24.98 in845.9 mb 0.00 in0.0 mm 0.00 in/hr0.0 mm/hr 0.00 in0.0 mm
02:15 PM 64.4°F18.0°C -5537.2°C - 15.0 mph WNW24.1 kmh WNW 26.6 mph42.8 kmh 25.01 in846.9 mb 0.00 in0.0 mm 0.00 in/hr0.0 mm/hr 0.00 in0.0 mm
02:20 PM 64.4°F18.0°C -5537.2°C - 17.0 mph NW27.4 kmh NW 31.8 mph51.2 kmh 25.01 in846.9 mb 0.00 in0.0 mm 0.00 in/hr0.0 mm/hr 0.00 in0.0 mm
02:25 PM 65.7°F18.7°C -5537.2°C - 18.0 mph NW29.0 kmh NW 22.8 mph36.7 kmh 25.01 in846.9 mb 0.00 in0.0 mm 0.00 in/hr0.0 mm/hr 0.00 in0.0 mm
02:30 PM 66.6°F19.2°C -5537.2°C - 16.0 mph WNW25.7 kmh WNW 23.7 mph38.1 kmh 25.01 in846.9 mb 0.00 in0.0 mm 0.00 in/hr0.0 mm/hr 0.00 in0.0 mm
02:35 PM 65.7°F18.7°C -5537.2°C - 13.0 mph W20.9 kmh W 25.3 mph40.7 kmh 25.01 in846.9 mb 0.00 in0.0 mm 0.00 in/hr0.0 mm/hr 0.00 in0.0 mm
02:40 PM 67.3°F19.6°C -5537.2°C - 13.0 mph WNW20.9 kmh WNW 21.9 mph35.2 kmh 25.01 in846.9 mb 0.00 in0.0 mm 0.00 in/hr0.0 mm/hr 0.00 in0.0 mm
02:45 PM 65.1°F18.4°C -5537.2°C - 14.0 mph NW22.5 kmh NW 18.6 mph29.9 kmh 24.98 in845.9 mb 0.00 in0.0 mm 0.00 in/hr0.0 mm/hr 0.00 in0.0 mm
02:50 PM 66.2°F19.0°C -5537.2°C - 12.0 mph NW19.3 kmh NW 21.0 mph33.8 kmh 24.98 in845.9 mb 0.00 in0.0 mm 0.00 in/hr0.0 mm/hr 0.00 in0.0 mm
02:55 PM 66.9°F19.4°C -5537.2°C - 13.0 mph NNW20.9 kmh NNW 22.8 mph36.7 kmh 24.98 in845.9 mb 0.00 in0.0 mm 0.00 in/hr0.0 mm/hr 0.00 in0.0 mm
03:00 PM 66.0°F18.9°C -5537.2°C - 14.0 mph NW22.5 kmh NW 21.5 mph34.6 kmh 24.98 in845.9 mb 0.00 in0.0 mm 0.00 in/hr0.0 mm/hr 0.00 in0.0 mm
03:05 PM 66.4°F19.1°C -5537.2°C - 15.0 mph NW24.1 kmh NW 21.9 mph35.2 kmh 24.98 in845.9 mb 0.00 in0.0 mm 0.00 in/hr0.0 mm/hr 0.00 in0.0 mm
03:10 PM 66.4°F19.1°C -5537.2°C - 14.0 mph NW22.5 kmh NW 18.6 mph29.9 kmh 24.98 in845.9 mb 0.00 in0.0 mm 0.00 in/hr0.0 mm/hr 0.00 in0.0 mm
03:15 PM 65.5°F18.6°C -5537.2°C - 13.0 mph NW20.9 kmh NW 18.1 mph29.1 kmh 24.98 in845.9 mb 0.00 in0.0 mm 0.00 in/hr0.0 mm/hr 0.00 in0.0 mm
03:20 PM 65.7°F18.7°C -5537.2°C - 15.0 mph NW24.1 kmh NW 20.1 mph32.3 kmh 24.98 in845.9 mb 0.00 in0.0 mm 0.00 in/hr0.0 mm/hr 0.00 in0.0 mm
03:25 PM 67.1°F19.5°C -5537.2°C - 15.0 mph NNW24.1 kmh NNW 17.2 mph27.7 kmh 24.98 in845.9 mb 0.00 in0.0 mm 0.00 in/hr0.0 mm/hr 0.00 in0.0 mm
03:30 PM 66.7°F19.3°C -5537.2°C - 13.0 mph NW20.9 kmh NW 19.9 mph32.0 kmh 24.98 in845.9 mb 0.00 in0.0 mm 0.00 in/hr0.0 mm/hr 0.00 in0.0 mm
03:35 PM 66.4°F19.1°C -5537.2°C - 11.0 mph NW17.7 kmh NW 18.6 mph29.9 kmh 24.98 in845.9 mb 0.00 in0.0 mm 0.00 in/hr0.0 mm/hr 0.00 in0.0 mm
03:40 PM 66.7°F19.3°C -5537.2°C - 11.0 mph NW17.7 kmh NW 16.8 mph27.0 kmh 24.98 in845.9 mb 0.00 in0.0 mm 0.00 in/hr0.0 mm/hr 0.00 in0.0 mm
03:45 PM 66.4°F19.1°C -5537.2°C - 12.0 mph NNW19.3 kmh NNW 15.9 mph25.6 kmh 24.98 in845.9 mb 0.00 in0.0 mm 0.00 in/hr0.0 mm/hr 0.00 in0.0 mm
03:50 PM 66.7°F19.3°C -5537.2°C - 12.0 mph N19.3 kmh N 19.0 mph30.6 kmh 24.98 in845.9 mb 0.00 in0.0 mm 0.00 in/hr0.0 mm/hr 0.00 in0.0 mm
03:55 PM 66.7°F19.3°C -5537.2°C - 12.0 mph NW19.3 kmh NW 17.2 mph27.7 kmh 24.98 in845.9 mb 0.00 in0.0 mm 0.00 in/hr0.0 mm/hr 0.00 in0.0 mm
04:00 PM 65.8°F18.8°C -5537.2°C - 11.0 mph NW17.7 kmh NW 17.2 mph27.7 kmh 24.98 in845.9 mb 0.00 in0.0 mm 0.00 in/hr0.0 mm/hr 0.00 in0.0 mm
04:05 PM 66.2°F19.0°C -5537.2°C - 10.0 mph NW16.1 kmh NW 14.8 mph23.8 kmh 24.98 in845.9 mb 0.00 in0.0 mm 0.00 in/hr0.0 mm/hr 0.00 in0.0 mm
04:10 PM 67.3°F19.6°C -5537.2°C - 11.0 mph NW17.7 kmh NW 16.3 mph26.2 kmh 24.98 in845.9 mb 0.00 in0.0 mm 0.00 in/hr0.0 mm/hr 0.00 in0.0 mm
04:15 PM 66.6°F19.2°C -5537.2°C - 11.0 mph NNW17.7 kmh NNW 18.1 mph29.1 kmh 24.98 in845.9 mb 0.00 in0.0 mm 0.00 in/hr0.0 mm/hr 0.00 in0.0 mm
04:21 PM 66.2°F19.0°C -5537.2°C - 11.0 mph NNW17.7 kmh NNW 17.7 mph28.5 kmh 24.98 in845.9 mb 0.00 in0.0 mm 0.00 in/hr0.0 mm/hr 0.00 in0.0 mm
04:26 PM 66.7°F19.3°C -5537.2°C - 12.0 mph NW19.3 kmh NW 15.9 mph25.6 kmh 24.98 in845.9 mb 0.00 in0.0 mm 0.00 in/hr0.0 mm/hr 0.00 in0.0 mm
04:31 PM 66.7°F19.3°C -5537.2°C - 11.0 mph NNW17.7 kmh NNW 18.6 mph29.9 kmh 24.98 in845.9 mb 0.00 in0.0 mm 0.00 in/hr0.0 mm/hr 0.00 in0.0 mm
04:36 PM 66.2°F19.0°C -5537.2°C - 10.0 mph NNW16.1 kmh NNW 13.4 mph21.6 kmh 24.98 in845.9 mb 0.00 in0.0 mm 0.00 in/hr0.0 mm/hr 0.00 in0.0 mm
04:41 PM 66.6°F19.2°C -5537.2°C - 10.0 mph NNW16.1 kmh NNW 14.8 mph23.8 kmh 24.98 in845.9 mb 0.00 in0.0 mm 0.00 in/hr0.0 mm/hr 0.00 in0.0 mm
04:46 PM 66.9°F19.4°C -5537.2°C - 9.0 mph NW14.5 kmh NW 16.8 mph27.0 kmh 24.98 in845.9 mb 0.00 in0.0 mm 0.00 in/hr0.0 mm/hr 0.00 in0.0 mm
04:51 PM 65.8°F18.8°C -5537.2°C - 10.0 mph NNW16.1 kmh NNW 22.4 mph36.0 kmh 24.98 in845.9 mb 0.00 in0.0 mm 0.00 in/hr0.0 mm/hr 0.00 in0.0 mm
04:56 PM 66.4°F19.1°C -5537.2°C - 11.0 mph N17.7 kmh N 15.9 mph25.6 kmh 24.98 in845.9 mb 0.00 in0.0 mm 0.00 in/hr0.0 mm/hr 0.00 in0.0 mm
05:01 PM 66.7°F19.3°C -5537.2°C - 11.0 mph NNW17.7 kmh NNW 17.2 mph27.7 kmh 24.98 in845.9 mb 0.00 in0.0 mm 0.00 in/hr0.0 mm/hr 0.00 in0.0 mm
05:11 PM 66.6°F19.2°C -5537.2°C - 11.0 mph NNW17.7 kmh NNW 16.8 mph27.0 kmh 24.98 in845.9 mb 0.00 in0.0 mm 0.00 in/hr0.0 mm/hr 0.00 in0.0 mm
05:16 PM 65.7°F18.7°C -5537.2°C - 11.0 mph NNW17.7 kmh NNW 16.3 mph26.2 kmh 24.98 in845.9 mb 0.00 in0.0 mm 0.00 in/hr0.0 mm/hr 0.00 in0.0 mm
05:21 PM 65.8°F18.8°C -5537.2°C - 11.0 mph N17.7 kmh N 17.7 mph28.5 kmh 24.98 in845.9 mb 0.00 in0.0 mm 0.00 in/hr0.0 mm/hr 0.00 in0.0 mm
05:26 PM 66.0°F18.9°C -5537.2°C - 9.0 mph N14.5 kmh N 11.0 mph17.7 kmh 24.98 in845.9 mb 0.00 in0.0 mm 0.00 in/hr0.0 mm/hr 0.00 in0.0 mm
05:31 PM 65.7°F18.7°C -5537.2°C - 9.0 mph N14.5 kmh N 15.9 mph25.6 kmh 24.98 in845.9 mb 0.00 in0.0 mm 0.00 in/hr0.0 mm/hr 0.00 in0.0 mm
05:36 PM 66.0°F18.9°C -5537.2°C - 10.0 mph N16.1 kmh N 15.2 mph24.5 kmh 24.98 in845.9 mb 0.00 in0.0 mm 0.00 in/hr0.0 mm/hr 0.00 in0.0 mm
05:41 PM 65.7°F18.7°C -5537.2°C - 10.0 mph NW16.1 kmh NW 16.3 mph26.2 kmh 24.98 in845.9 mb 0.00 in0.0 mm 0.00 in/hr0.0 mm/hr 0.00 in0.0 mm
05:46 PM 65.7°F18.7°C -5537.2°C - 10.0 mph NW16.1 kmh NW 15.4 mph24.8 kmh 24.98 in845.9 mb 0.00 in0.0 mm 0.00 in/hr0.0 mm/hr 0.00 in0.0 mm
05:51 PM 65.5°F18.6°C -5537.2°C - 10.0 mph NW16.1 kmh NW 16.8 mph27.0 kmh 24.98 in845.9 mb 0.04 in1.0 mm 0.48 in/hr12.2 mm/hr 0.04 in1.0 mm
05:56 PM 65.1°F18.4°C -5537.2°C - 10.0 mph NW16.1 kmh NW 12.5 mph20.1 kmh 25.01 in846.9 mb 0.04 in1.0 mm 0.00 in/hr0.0 mm/hr 0.04 in1.0 mm
06:01 PM 64.6°F18.1°C -5537.2°C - 8.0 mph NNW12.9 kmh NNW 12.5 mph20.1 kmh 25.01 in846.9 mb 0.04 in1.0 mm 0.00 in/hr0.0 mm/hr 0.04 in1.0 mm
06:06 PM 64.4°F18.0°C -5537.2°C - 8.0 mph NNW12.9 kmh NNW 13.0 mph20.9 kmh 25.01 in846.9 mb 0.04 in1.0 mm 0.00 in/hr0.0 mm/hr 0.04 in1.0 mm
06:11 PM 64.4°F18.0°C -5537.2°C - 9.0 mph NNW14.5 kmh NNW 13.0 mph20.9 kmh 25.01 in846.9 mb 0.04 in1.0 mm 0.00 in/hr0.0 mm/hr 0.04 in1.0 mm
06:16 PM 64.9°F18.3°C -5537.2°C - 9.0 mph NNW14.5 kmh NNW 13.0 mph20.9 kmh 25.01 in846.9 mb 0.04 in1.0 mm 0.00 in/hr0.0 mm/hr 0.04 in1.0 mm
06:21 PM 64.9°F18.3°C -5537.2°C - 9.0 mph NNW14.5 kmh NNW 12.1 mph19.5 kmh 25.01 in846.9 mb 0.04 in1.0 mm 0.00 in/hr0.0 mm/hr 0.04 in1.0 mm
06:26 PM 64.6°F18.1°C -5537.2°C - 8.0 mph NNW12.9 kmh NNW 12.1 mph19.5 kmh 25.01 in846.9 mb 0.04 in1.0 mm 0.00 in/hr0.0 mm/hr 0.04 in1.0 mm
06:31 PM 64.4°F18.0°C -5537.2°C - 8.0 mph NNW12.9 kmh NNW 10.1 mph16.3 kmh 25.01 in846.9 mb 0.04 in1.0 mm 0.00 in/hr0.0 mm/hr 0.04 in1.0 mm
06:36 PM 63.9°F17.7°C -5537.2°C - 7.0 mph NNW11.3 kmh NNW 10.5 mph16.9 kmh 25.01 in846.9 mb 0.04 in1.0 mm 0.00 in/hr0.0 mm/hr 0.04 in1.0 mm
06:41 PM 63.3°F17.4°C -5537.2°C - 6.0 mph NNW9.7 kmh NNW 8.3 mph13.4 kmh 25.01 in846.9 mb 0.04 in1.0 mm 0.00 in/hr0.0 mm/hr 0.04 in1.0 mm
06:46 PM 62.6°F17.0°C -5537.2°C - 5.0 mph NNW8.0 kmh NNW 4.9 mph7.9 kmh 25.01 in846.9 mb 0.04 in1.0 mm 0.00 in/hr0.0 mm/hr 0.04 in1.0 mm
06:51 PM 62.2°F16.8°C -5537.2°C - 4.0 mph NNW6.4 kmh NNW 6.3 mph10.1 kmh 25.01 in846.9 mb 0.00 in0.0 mm 0.00 in/hr0.0 mm/hr 0.04 in1.0 mm
06:56 PM 61.9°F16.6°C -5537.2°C - 4.0 mph NNW6.4 kmh NNW 6.3 mph10.1 kmh 25.01 in846.9 mb 0.00 in0.0 mm 0.00 in/hr0.0 mm/hr 0.04 in1.0 mm
07:01 PM 61.9°F16.6°C -5537.2°C - 4.0 mph NNW6.4 kmh NNW 6.3 mph10.1 kmh 25.01 in846.9 mb 0.00 in0.0 mm 0.00 in/hr0.0 mm/hr 0.04 in1.0 mm
07:06 PM 61.0°F16.1°C -5537.2°C - 4.0 mph NW6.4 kmh NW 4.0 mph6.4 kmh 25.01 in846.9 mb 0.00 in0.0 mm 0.00 in/hr0.0 mm/hr 0.04 in1.0 mm
07:12 PM 60.4°F15.8°C -5537.2°C - 3.0 mph NW4.8 kmh NW 4.5 mph7.2 kmh 25.01 in846.9 mb 0.00 in0.0 mm 0.00 in/hr0.0 mm/hr 0.04 in1.0 mm
07:17 PM 59.9°F15.5°C -5537.2°C - 2.0 mph NW3.2 kmh NW 4.0 mph6.4 kmh 25.01 in846.9 mb 0.00 in0.0 mm 0.00 in/hr0.0 mm/hr 0.04 in1.0 mm
07:22 PM 59.0°F15.0°C -5537.2°C - 1.0 mph NW1.6 kmh NW 2.7 mph4.3 kmh 25.01 in846.9 mb 0.00 in0.0 mm 0.00 in/hr0.0 mm/hr 0.04 in1.0 mm
07:27 PM 58.6°F14.8°C -5537.2°C - Calm Calm -- 25.01 in846.9 mb 0.00 in0.0 mm 0.00 in/hr0.0 mm/hr 0.04 in1.0 mm
07:32 PM 58.3°F14.6°C -5537.2°C - Calm Calm 3.6 mph5.8 kmh 25.01 in846.9 mb 0.00 in0.0 mm 0.00 in/hr0.0 mm/hr 0.04 in1.0 mm
07:37 PM 57.9°F14.4°C -5537.2°C - Calm Calm 3.6 mph5.8 kmh 25.01 in846.9 mb 0.00 in0.0 mm 0.00 in/hr0.0 mm/hr 0.04 in1.0 mm
07:42 PM 57.6°F14.2°C -5537.2°C - Calm Calm -- 25.04 in848.0 mb 0.00 in0.0 mm 0.00 in/hr0.0 mm/hr 0.04 in1.0 mm
07:47 PM 57.4°F14.1°C -5537.2°C - Calm Calm -- 25.04 in848.0 mb 0.00 in0.0 mm 0.00 in/hr0.0 mm/hr 0.04 in1.0 mm
07:52 PM 57.2°F14.0°C -5537.2°C - Calm Calm 3.1 mph5.0 kmh 25.04 in848.0 mb 0.00 in0.0 mm 0.00 in/hr0.0 mm/hr 0.04 in1.0 mm
07:57 PM 57.6°F14.2°C -5537.2°C - Calm Calm 3.1 mph5.0 kmh 25.04 in848.0 mb 0.00 in0.0 mm 0.00 in/hr0.0 mm/hr 0.04 in1.0 mm
08:02 PM 57.7°F14.3°C -5537.2°C - Calm Calm -- 25.04 in848.0 mb 0.00 in0.0 mm 0.00 in/hr0.0 mm/hr 0.04 in1.0 mm
08:07 PM 58.1°F14.5°C -5537.2°C - Calm Calm 3.1 mph5.0 kmh 25.04 in848.0 mb 0.00 in0.0 mm 0.00 in/hr0.0 mm/hr 0.04 in1.0 mm
08:12 PM 58.3°F14.6°C -5537.2°C - 1.0 mph NW1.6 kmh NW 3.6 mph5.8 kmh 25.04 in848.0 mb 0.00 in0.0 mm 0.00 in/hr0.0 mm/hr 0.04 in1.0 mm
08:17 PM 58.3°F14.6°C -5537.2°C - 1.0 mph NW1.6 kmh NW 4.9 mph7.9 kmh 25.04 in848.0 mb 0.00 in0.0 mm 0.00 in/hr0.0 mm/hr 0.04 in1.0 mm
08:22 PM 58.8°F14.9°C -5537.2°C - 3.0 mph NW4.8 kmh NW 6.3 mph10.1 kmh 25.04 in848.0 mb 0.00 in0.0 mm 0.00 in/hr0.0 mm/hr 0.04 in1.0 mm
08:27 PM 59.9°F15.5°C -5537.2°C - 5.0 mph NW8.0 kmh NW 10.1 mph16.3 kmh 25.04 in848.0 mb 0.00 in0.0 mm 0.00 in/hr0.0 mm/hr 0.04 in1.0 mm
08:32 PM 60.3°F15.7°C -5537.2°C - 5.0 mph WNW8.0 kmh WNW 8.7 mph14.0 kmh 25.04 in848.0 mb 0.00 in0.0 mm 0.00 in/hr0.0 mm/hr 0.04 in1.0 mm
08:37 PM 60.4°F15.8°C -5537.2°C - 5.0 mph W8.0 kmh W 7.4 mph11.9 kmh 25.04 in848.0 mb 0.00 in0.0 mm 0.00 in/hr0.0 mm/hr 0.04 in1.0 mm
08:42 PM 59.9°F15.5°C -5537.2°C - 5.0 mph WSW8.0 kmh WSW 7.4 mph11.9 kmh 25.04 in848.0 mb 0.00 in0.0 mm 0.00 in/hr0.0 mm/hr 0.04 in1.0 mm
08:47 PM 59.2°F15.1°C -5537.2°C - 5.0 mph WSW8.0 kmh WSW 10.5 mph16.9 kmh 25.04 in848.0 mb 0.00 in0.0 mm 0.00 in/hr0.0 mm/hr 0.04 in1.0 mm
08:52 PM 59.2°F15.1°C -5537.2°C - 6.0 mph SW9.7 kmh SW 11.2 mph18.0 kmh 25.04 in848.0 mb 0.00 in0.0 mm 0.00 in/hr0.0 mm/hr 0.04 in1.0 mm
08:57 PM 58.6°F14.8°C -5537.2°C - 6.0 mph SW9.7 kmh SW 8.7 mph14.0 kmh 25.04 in848.0 mb 0.00 in0.0 mm 0.00 in/hr0.0 mm/hr 0.04 in1.0 mm
09:02 PM 57.9°F14.4°C -5537.2°C - 6.0 mph SW9.7 kmh SW 7.4 mph11.9 kmh 25.04 in848.0 mb 0.00 in0.0 mm 0.00 in/hr0.0 mm/hr 0.04 in1.0 mm
09:07 PM 57.4°F14.1°C -5537.2°C - 4.0 mph SW6.4 kmh SW 6.9 mph11.1 kmh 25.04 in848.0 mb 0.00 in0.0 mm 0.00 in/hr0.0 mm/hr 0.04 in1.0 mm
09:12 PM 57.0°F13.9°C -5537.2°C - 4.0 mph WSW6.4 kmh WSW 7.8 mph12.6 kmh 25.04 in848.0 mb 0.00 in0.0 mm 0.00 in/hr0.0 mm/hr 0.04 in1.0 mm
09:17 PM 57.0°F13.9°C -5537.2°C - 6.0 mph WSW9.7 kmh WSW 10.1 mph16.3 kmh 25.04 in848.0 mb 0.00 in0.0 mm 0.00 in/hr0.0 mm/hr 0.04 in1.0 mm
09:22 PM 56.7°F13.7°C -5537.2°C - 6.0 mph WSW9.7 kmh WSW 8.3 mph13.4 kmh 25.04 in848.0 mb 0.00 in0.0 mm 0.00 in/hr0.0 mm/hr 0.04 in1.0 mm
09:27 PM 56.5°F13.6°C -5537.2°C - 5.0 mph WSW8.0 kmh WSW 8.3 mph13.4 kmh 25.04 in848.0 mb 0.00 in0.0 mm 0.00 in/hr0.0 mm/hr 0.04 in1.0 mm
09:32 PM 56.5°F13.6°C -5537.2°C - 6.0 mph WSW9.7 kmh WSW 9.2 mph14.8 kmh 25.04 in848.0 mb 0.00 in0.0 mm 0.00 in/hr0.0 mm/hr 0.04 in1.0 mm
09:37 PM 56.1°F13.4°C -5537.2°C - 5.0 mph WSW8.0 kmh WSW 8.3 mph13.4 kmh 25.04 in848.0 mb 0.00 in0.0 mm 0.00 in/hr0.0 mm/hr 0.04 in1.0 mm
09:42 PM 55.2°F12.9°C -5537.2°C - 2.0 mph WSW3.2 kmh WSW 2.7 mph4.3 kmh 25.04 in848.0 mb 0.00 in0.0 mm 0.00 in/hr0.0 mm/hr 0.04 in1.0 mm
09:47 PM 55.0°F12.8°C -5537.2°C - 2.0 mph WSW3.2 kmh WSW 5.8 mph9.3 kmh 25.04 in848.0 mb 0.00 in0.0 mm 0.00 in/hr0.0 mm/hr 0.04 in1.0 mm
09:52 PM 55.8°F13.2°C -5537.2°C - 4.0 mph WSW6.4 kmh WSW 7.4 mph11.9 kmh 25.04 in848.0 mb 0.00 in0.0 mm 0.00 in/hr0.0 mm/hr 0.04 in1.0 mm
09:57 PM 55.8°F13.2°C -5537.2°C - 4.0 mph WSW6.4 kmh WSW 7.4 mph11.9 kmh 25.04 in848.0 mb 0.00 in0.0 mm 0.00 in/hr0.0 mm/hr 0.04 in1.0 mm
10:02 PM 55.2°F12.9°C -5537.2°C - 4.0 mph WSW6.4 kmh WSW 7.4 mph11.9 kmh 25.04 in848.0 mb 0.00 in0.0 mm 0.00 in/hr0.0 mm/hr 0.04 in1.0 mm
10:07 PM 54.9°F12.7°C -5537.2°C - 4.0 mph SW6.4 kmh SW 6.3 mph10.1 kmh 25.04 in848.0 mb 0.00 in0.0 mm 0.00 in/hr0.0 mm/hr 0.04 in1.0 mm
10:12 PM 54.3°F12.4°C -5537.2°C - 3.0 mph WSW4.8 kmh WSW 6.3 mph10.1 kmh 25.04 in848.0 mb 0.00 in0.0 mm 0.00 in/hr0.0 mm/hr 0.04 in1.0 mm
10:17 PM 54.5°F12.5°C -5537.2°C - 4.0 mph WSW6.4 kmh WSW 7.8 mph12.6 kmh 25.04 in848.0 mb 0.00 in0.0 mm 0.00 in/hr0.0 mm/hr 0.04 in1.0 mm
10:22 PM 54.7°F12.6°C -5537.2°C - 5.0 mph SW8.0 kmh SW 8.7 mph14.0 kmh 25.04 in848.0 mb 0.00 in0.0 mm 0.00 in/hr0.0 mm/hr 0.04 in1.0 mm
10:27 PM 54.5°F12.5°C -5537.2°C - 5.0 mph SW8.0 kmh SW 8.7 mph14.0 kmh 25.04 in848.0 mb 0.00 in0.0 mm 0.00 in/hr0.0 mm/hr 0.04 in1.0 mm
10:33 PM 54.1°F12.3°C -5537.2°C - 5.0 mph SW8.0 kmh SW 8.3 mph13.4 kmh 25.04 in848.0 mb 0.00 in0.0 mm 0.00 in/hr0.0 mm/hr 0.04 in1.0 mm
10:38 PM 54.5°F12.5°C -5537.2°C - 6.0 mph SW9.7 kmh SW 10.1 mph16.3 kmh 25.04 in848.0 mb 0.00 in0.0 mm 0.00 in/hr0.0 mm/hr 0.04 in1.0 mm
10:43 PM 54.3°F12.4°C -5537.2°C - 6.0 mph SW9.7 kmh SW 8.3 mph13.4 kmh 25.04 in848.0 mb 0.00 in0.0 mm 0.00 in/hr0.0 mm/hr 0.04 in1.0 mm
10:48 PM 53.4°F11.9°C -5537.2°C - 4.0 mph SW6.4 kmh SW 5.8 mph9.3 kmh 25.04 in848.0 mb 0.00 in0.0 mm 0.00 in/hr0.0 mm/hr 0.04 in1.0 mm
10:53 PM 53.4°F11.9°C -5537.2°C - 3.0 mph SW4.8 kmh SW 7.4 mph11.9 kmh 25.04 in848.0 mb 0.00 in0.0 mm 0.00 in/hr0.0 mm/hr 0.04 in1.0 mm
10:58 PM 54.3°F12.4°C -5537.2°C - 4.0 mph SW6.4 kmh SW 9.2 mph14.8 kmh 25.04 in848.0 mb 0.00 in0.0 mm 0.00 in/hr0.0 mm/hr 0.04 in1.0 mm
11:03 PM 54.5°F12.5°C -5537.2°C - 6.0 mph WSW9.7 kmh WSW 11.0 mph17.7 kmh 25.04 in848.0 mb 0.00 in0.0 mm 0.00 in/hr0.0 mm/hr 0.04 in1.0 mm
11:08 PM 54.5°F12.5°C -5537.2°C - 6.0 mph WSW9.7 kmh WSW 9.6 mph15.4 kmh 25.04 in848.0 mb 0.00 in0.0 mm 0.00 in/hr0.0 mm/hr 0.04 in1.0 mm
11:13 PM 54.1°F12.3°C -5537.2°C - 5.0 mph SW8.0 kmh SW 8.7 mph14.0 kmh 25.04 in848.0 mb 0.00 in0.0 mm 0.00 in/hr0.0 mm/hr 0.04 in1.0 mm
11:18 PM 53.6°F12.0°C -5537.2°C - 4.0 mph SW6.4 kmh SW 6.3 mph10.1 kmh 25.04 in848.0 mb 0.00 in0.0 mm 0.00 in/hr0.0 mm/hr 0.04 in1.0 mm
11:23 PM 53.1°F11.7°C -5537.2°C - 2.0 mph WSW3.2 kmh WSW 3.1 mph5.0 kmh 25.04 in848.0 mb 0.00 in0.0 mm 0.00 in/hr0.0 mm/hr 0.04 in1.0 mm
11:28 PM 52.9°F11.6°C -5537.2°C - 1.0 mph WSW1.6 kmh WSW 4.5 mph7.2 kmh 25.04 in848.0 mb 0.00 in0.0 mm 0.00 in/hr0.0 mm/hr 0.04 in1.0 mm
11:33 PM 52.7°F11.5°C -5537.2°C - 2.0 mph W3.2 kmh W 4.0 mph6.4 kmh 25.04 in848.0 mb 0.00 in0.0 mm 0.00 in/hr0.0 mm/hr 0.04 in1.0 mm
11:43 PM 51.4°F10.8°C -5537.2°C - 3.0 mph SW4.8 kmh SW 5.8 mph9.3 kmh 25.04 in848.0 mb 0.00 in0.0 mm 0.00 in/hr0.0 mm/hr 0.04 in1.0 mm
11:48 PM 51.1°F10.6°C -5537.2°C - 3.0 mph S4.8 kmh S 5.4 mph8.7 kmh 25.04 in848.0 mb 0.00 in0.0 mm 0.00 in/hr0.0 mm/hr 0.04 in1.0 mm
11:53 PM 50.5°F10.3°C -5537.2°C - 3.0 mph S4.8 kmh S 5.4 mph8.7 kmh 25.04 in848.0 mb 0.00 in0.0 mm 0.00 in/hr0.0 mm/hr 0.04 in1.0 mm
11:58 PM 50.2°F10.1°C -5537.2°C - 2.0 mph S3.2 kmh S 5.4 mph8.7 kmh 25.04 in848.0 mb 0.00 in0.0 mm 0.00 in/hr0.0 mm/hr 0.04 in1.0 mm